Domov               UVHVVR             MKGP            O straneh              
ZDRAVSTVENO VARSTVO RASTLIN
  MREŽA AGROMET. POSTAJ
 ► PROGNOSTIČNA OBVESTILA
AGROMETEOROLOŠKI PODATKI -
ARSO
OBVLADOVANJE TVEGANJ ZARADI
NEUGODNIH VREMENSKIH RAZMER
  ► NARAVNE NESREČE
  ► SUŠA/MOČA
  ► NAMAKANJE
  ► ŽLED (gozdarstvo)
KARTOGRAFSKI PRIKAZI
SPLETNE POVEZAVE
PROJEKTI IN PUBLIKACIJE

AGROMETEOROLOŠKA MREŽA: VREMENSKE POSTAJE IN FENOLOŠKA OPAZOVANJA

Pregled podatkov za lokacijo Črmljenšak, meteorološka postaja 25166

Pregled senzorjev na lokaciji

ID Ime Zadnja
vrednost
Datum
zadnje
spremembe
Tip
senzorja
4041 Omočenost lista (U) 1 U 17.8.2017 07:30 A730WET
4043 Padavine 0.2 mm (mm) 0 mm 17.8.2017 07:30 Generic 0.2 mm
4048 Temperatura 2 m ( °C) 23 °C 17.8.2017 07:30 Generic -40 - +60 °C
4049 Relativna vlaga 2 m (% RH) 76,58 % RH 17.8.2017 07:30 Generic 0 - 100 %

Pregled podatkov zadnjih 24 ur

Zap.
št.
Datum in čas Črmljenšak
Omočenost
lista
Padavine
0.2
mm
Relativna
vlaga
2
m
Temperatura
2
m
0 17.8.2017 06:30 1 0 76,58 23
1 17.8.2017 06:00 5 0 85,3 17,95
2 17.8.2017 05:30 4 0 90,62 15,7
3 17.8.2017 05:00 4 0 86,62 16,29
4 17.8.2017 04:30 3 0 86,76 16,26
5 17.8.2017 04:00 2 0 83,37 16,68
6 17.8.2017 03:30 1 0 80,76 17,73
7 17.8.2017 03:00 0 0 77 19,1
8 17.8.2017 02:30 0 0 75,92 19,24
9 17.8.2017 02:00 0 0 76,9 18,78
10 17.8.2017 01:30 0 0 79,78 20,1
11 17.8.2017 01:00 0 0 78,22 18,66
12 17.8.2017 00:30 0 0 76,34 19,93
13 17.8.2017 00:00 0 0 76,36 19
14 16.8.2017 23:30 0 0 73,82 19,34
15 16.8.2017 23:00 0 0 75,7 20,66
16 16.8.2017 22:30 0 0 74,16 21,71
17 16.8.2017 22:00 0 0 72,5 22,95
18 16.8.2017 21:30 0 0 71,99 25,15
19 16.8.2017 21:00 0 0 72,01 25,3
20 16.8.2017 20:30 0 0 70,7 25,89
21 16.8.2017 20:00 0 0 69,08 24,03
22 16.8.2017 19:30 0 0 68,67 26,47
23 16.8.2017 19:00 0 0 65,45 27,91
24 16.8.2017 18:30 0 0 63,13 29,6
25 16.8.2017 18:00 0 0 56,85 31,82
26 16.8.2017 17:30 0 0 49,08 33,6
27 16.8.2017 17:00 0 0 52,55 35,21
28 16.8.2017 16:30 0 0 46,06 38,63
29 16.8.2017 16:00 0 0 39,05 38,71
30 16.8.2017 15:30 0 0 35,41
31 16.8.2017 15:00 0 0 36,34
32 16.8.2017 14:30 0 0 36,17 39,78
33 16.8.2017 14:00 0 0 38,66
34 16.8.2017 13:30 0 0 36,9
35 16.8.2017 13:00 0 0 35,56
36 16.8.2017 12:30 0 0 35,02
37 16.8.2017 12:00 0 0 36,53
38 16.8.2017 11:30 0 0 40,54
39 16.8.2017 11:00 0 0 46,32
40 16.8.2017 10:30 0 0 49,87 38,88
41 16.8.2017 10:00 0 0 52,36 37,22
42 16.8.2017 09:30 0 0 54,31 36,73
43 16.8.2017 09:00 0 0 52,7 36,04
44 16.8.2017 08:30 0 0 59 31,36
45 16.8.2017 08:00 0 0 62,15 28,5
© 2011 Ministrstvo za kmetijstvo, gozdarstvo in prehrano. Vse pravice pridržane.